Time;durP1;ratioP1;P1;durP2;ratioP2;P2;SDS_P1;SDS_P2;PMS_P1;PMS_P2;Temp;Humidity;BMP_temperature;BMP_pressure;BME280_temperature;BME280_humidity;BME280_pressure;Samples;Min_cycle;Max_cycle;Signal;HPM_P1;HPM_P2
2022/03/31 00:00:21;;;;;;;10.10;9.07;;;14.10;68.10;14.40;94639.00;;;;4951580;29;20199;-86
2022/03/31 00:02:48;;;;;;;10.30;9.30;;;14.10;68.20;14.40;94634.00;;;;4969232;28;20219;-87
2022/03/31 00:05:15;;;;;;;10.20;9.17;;;14.00;68.00;14.40;94632.00;;;;4960436;28;20274;-86
2022/03/31 00:07:51;;;;;;;10.47;9.27;;;13.90;68.00;14.30;94633.00;;;;4979289;28;20236;-87
2022/03/31 00:10:24;;;;;;;9.53;8.63;;;14.00;68.40;14.30;94642.00;;;;5019158;23;20231;-81
2022/03/31 00:12:53;;;;;;;9.83;8.83;;;14.00;68.40;14.30;94634.00;;;;4970463;28;20677;-81
2022/03/31 00:15:20;;;;;;;9.57;8.67;;;13.90;68.20;14.30;94640.00;;;;4962399;29;20231;-81
2022/03/31 00:17:48;;;;;;;9.47;8.57;;;13.90;68.20;14.30;94631.00;;;;4962237;28;20311;-81
2022/03/31 00:20:15;;;;;;;9.10;8.10;;;13.90;68.10;14.30;94637.00;;;;4960479;29;20216;-81
2022/03/31 00:22:42;;;;;;;9.13;8.30;;;13.90;68.00;14.20;94625.00;;;;4960592;28;20267;-81
2022/03/31 00:25:12;;;;;;;9.70;8.70;;;13.90;68.10;14.20;94628.00;;;;4952755;29;20204;-82
2022/03/31 00:27:40;;;;;;;10.30;9.10;;;13.90;68.20;14.20;94628.00;;;;4951456;29;20254;-82
2022/03/31 00:30:10;;;;;;;9.40;8.50;;;13.80;67.80;14.20;94629.00;;;;4951443;28;20242;-82
2022/03/31 00:32:38;;;;;;;8.87;7.97;;;13.80;67.90;14.10;94625.00;;;;4951788;29;20207;-82
2022/03/31 00:35:10;;;;;;;9.93;9.03;;;13.80;67.90;14.10;94620.00;;;;4959806;28;20206;-82
2022/03/31 00:37:37;;;;;;;10.40;9.30;;;13.80;68.20;14.10;94609.00;;;;4953068;28;20280;-81
2022/03/31 00:40:06;;;;;;;10.90;9.43;;;13.80;68.30;14.10;94608.00;;;;4951771;29;20562;-82
2022/03/31 00:42:41;;;;;;;10.70;9.43;;;13.70;68.30;14.00;94606.00;;;;4952642;28;20200;-82
2022/03/31 00:45:14;;;;;;;10.60;9.50;;;13.70;68.40;14.00;94603.00;;;;4951256;28;20188;-81
2022/03/31 00:47:42;;;;;;;10.67;9.57;;;13.80;68.50;14.00;94603.00;;;;4953685;28;20243;-82
2022/03/31 00:50:11;;;;;;;9.83;8.90;;;13.70;68.10;14.00;94601.00;;;;4954890;28;20208;-82
2022/03/31 00:52:38;;;;;;;11.13;10.03;;;13.70;68.30;14.00;94601.00;;;;4954837;28;20240;-82
2022/03/31 00:55:08;;;;;;;11.57;10.37;;;13.70;68.40;14.00;94590.00;;;;4958093;28;20256;-82
2022/03/31 00:57:37;;;;;;;11.47;10.37;;;13.70;68.50;14.00;94583.00;;;;4962898;28;20727;-82
2022/03/31 01:00:09;;;;;;;11.40;10.30;;;13.70;68.50;14.00;94583.00;;;;4955095;29;20196;-81
2022/03/31 01:02:37;;;;;;;11.23;10.13;;;13.70;68.50;14.00;94581.00;;;;4954965;28;20559;-82
2022/03/31 01:05:06;;;;;;;11.57;10.37;;;13.70;68.30;13.90;94573.00;;;;4954597;28;20216;-82
2022/03/31 01:07:35;;;;;;;11.80;10.17;;;13.60;68.20;13.90;94580.00;;;;4953926;28;20200;-81
2022/03/31 01:10:06;;;;;;;11.50;10.37;;;13.60;68.20;13.90;94563.00;;;;4953220;29;20208;-82
2022/03/31 01:12:33;;;;;;;11.50;10.30;;;13.60;68.20;13.80;94557.00;;;;4954184;28;20283;-81
2022/03/31 01:15:18;;;;;;;12.17;10.90;;;13.60;68.10;13.80;94556.00;;;;4953617;29;20687;-81
2022/03/31 01:17:47;;;;;;;11.33;10.17;;;13.60;68.30;13.80;94550.00;;;;4954350;29;20555;-82
2022/03/31 01:20:17;;;;;;;11.80;10.30;;;13.50;67.90;13.70;94553.00;;;;4954557;28;20216;-82
2022/03/31 01:22:46;;;;;;;12.47;11.17;;;13.50;68.00;13.70;94545.00;;;;4939312;28;20227;-81
2022/03/31 01:25:15;;;;;;;12.90;10.30;;;13.40;67.90;13.70;94545.00;;;;4954769;29;20223;-81
2022/03/31 01:27:45;;;;;;;12.03;10.73;;;13.40;68.00;13.60;94543.00;;;;4954219;28;20204;-82
2022/03/31 01:30:17;;;;;;;12.20;10.90;;;13.40;67.90;13.60;94544.00;;;;4953876;29;20234;-82
2022/03/31 01:32:45;;;;;;;12.57;11.30;;;13.30;67.90;13.50;94535.00;;;;4954014;28;20250;-82
2022/03/31 01:35:14;;;;;;;12.33;11.00;;;13.30;68.00;13.50;94531.00;;;;4953336;29;20586;-82
2022/03/31 01:37:42;;;;;;;14.17;11.97;;;13.20;68.00;13.50;94532.00;;;;4954161;28;20749;-82
2022/03/31 01:40:11;;;;;;;14.13;12.30;;;13.20;68.20;13.40;94526.00;;;;4956823;28;20246;-81
2022/03/31 01:42:40;;;;;;;14.70;12.77;;;13.20;68.30;13.40;94518.00;;;;4935854;28;20219;-82
2022/03/31 01:45:12;;;;;;;14.43;12.50;;;13.10;68.40;13.40;94525.00;;;;4934823;28;20201;-82
2022/03/31 01:47:39;;;;;;;15.57;12.83;;;13.10;68.50;13.30;94524.00;;;;4944383;29;20200;-82
2022/03/31 01:50:09;;;;;;;17.80;14.50;;;13.10;68.70;13.30;94517.00;;;;4953639;28;20204;-82
2022/03/31 01:52:36;;;;;;;18.50;14.13;;;13.10;68.80;13.30;94520.00;;;;4953565;28;20219;-82
2022/03/31 01:55:04;;;;;;;16.50;14.20;;;13.00;68.80;13.30;94515.00;;;;4952977;29;20400;-82
2022/03/31 01:57:31;;;;;;;18.23;14.23;;;13.00;68.90;13.20;94517.00;;;;4952929;28;20231;-82
2022/03/31 02:00:02;;;;;;;17.30;13.87;;;13.00;69.00;13.20;94520.00;;;;4953054;29;20223;-82
2022/03/31 02:02:30;;;;;;;17.13;14.03;;;13.00;69.20;13.30;94517.00;;;;4953254;28;20267;-82
2022/03/31 02:04:58;;;;;;;19.27;15.50;;;13.00;69.40;13.30;94511.00;;;;4952625;28;20569;-82
2022/03/31 02:07:25;;;;;;;18.63;15.00;;;12.90;69.40;13.30;94518.00;;;;4953196;28;20200;-82
2022/03/31 02:09:52;;;;;;;20.03;15.87;;;12.90;69.40;13.30;94498.00;;;;4952788;28;20705;-82
2022/03/31 02:12:19;;;;;;;20.30;16.00;;;12.90;69.50;13.30;94497.00;;;;4953185;29;20194;-82
2022/03/31 02:14:46;;;;;;;21.03;15.83;;;12.90;69.60;13.30;94495.00;;;;4952395;29;20197;-82
2022/03/31 02:17:14;;;;;;;22.50;16.70;;;13.00;69.70;13.30;94490.00;;;;4953260;28;20569;-82
2022/03/31 02:19:41;;;;;;;18.60;15.70;;;12.90;69.80;13.30;94495.00;;;;4952919;29;20231;-81
2022/03/31 02:22:09;;;;;;;19.70;15.30;;;13.00;69.90;13.30;94499.00;;;;4954394;28;20256;-82
2022/03/31 02:24:36;;;;;;;19.93;15.73;;;12.90;69.80;13.30;94490.00;;;;4953998;28;20217;-81
2022/03/31 02:27:04;;;;;;;21.77;16.03;;;12.90;69.90;13.30;94489.00;;;;4953514;28;20736;-81
2022/03/31 02:29:32;;;;;;;21.33;16.63;;;13.00;70.00;13.40;94489.00;;;;4953286;28;20204;-81
2022/03/31 02:31:59;;;;;;;20.80;15.57;;;13.00;70.10;13.40;94483.00;;;;4952975;28;20228;-82
2022/03/31 02:34:28;;;;;;;20.97;15.77;;;13.00;70.10;13.40;94486.00;;;;4952594;29;20200;-82
2022/03/31 02:36:55;;;;;;;20.27;14.93;;;13.00;70.10;13.40;94486.00;;;;4952611;28;20198;-82
2022/03/31 02:39:22;;;;;;;20.10;15.23;;;13.00;69.90;13.40;94483.00;;;;4952705;28;20593;-82
2022/03/31 02:41:49;;;;;;;20.67;15.07;;;13.10;70.00;13.40;94483.00;;;;4953116;28;20232;-82
2022/03/31 02:44:16;;;;;;;21.43;16.07;;;13.10;70.00;13.40;94482.00;;;;4953168;29;20204;-82
2022/03/31 02:46:44;;;;;;;21.87;16.00;;;13.10;69.90;13.40;94479.00;;;;4953379;28;20674;-82
2022/03/31 02:49:11;;;;;;;21.37;15.47;;;13.10;69.90;13.40;94476.00;;;;4953399;29;20204;-82
2022/03/31 02:51:39;;;;;;;21.23;16.50;;;13.10;69.90;13.40;94467.00;;;;4953532;29;20224;-82
2022/03/31 02:56:51;;;;;;;21.67;17.10;;;13.10;69.90;13.50;94466.00;;;;4953312;29;20198;-81
2022/03/31 02:59:18;;;;;;;20.53;16.73;;;13.20;69.90;13.50;94466.00;;;;4953167;29;20234;-82
2022/03/31 03:01:45;;;;;;;21.77;16.37;;;13.10;69.80;13.50;94460.00;;;;4953083;28;20227;-83
2022/03/31 03:04:12;;;;;;;22.37;16.67;;;13.20;69.80;13.50;94455.00;;;;4951525;29;20216;-82
2022/03/31 03:06:41;;;;;;;19.03;14.70;;;13.20;69.90;13.50;94452.00;;;;4951441;28;20211;-82
2022/03/31 03:09:09;;;;;;;23.67;16.87;;;13.20;70.00;13.50;94432.00;;;;4951306;28;20665;-81
2022/03/31 03:11:36;;;;;;;22.07;16.63;;;13.20;69.90;13.50;94442.00;;;;4950859;28;20287;-81
2022/03/31 03:14:04;;;;;;;22.20;16.27;;;13.20;69.70;13.50;94433.00;;;;4958679;28;20291;-83
2022/03/31 03:16:31;;;;;;;21.93;15.70;;;13.20;69.50;13.50;94438.00;;;;4950913;28;20269;-82
2022/03/31 03:18:58;;;;;;;21.87;15.87;;;13.20;69.50;13.50;94440.00;;;;4951559;29;20715;-82
2022/03/31 03:21:26;;;;;;;21.47;15.77;;;13.20;69.70;13.50;94443.00;;;;4951609;28;20231;-82
2022/03/31 03:23:54;;;;;;;22.80;16.60;;;13.20;69.70;13.50;94437.00;;;;4951870;28;20216;-82
2022/03/31 03:26:21;;;;;;;21.30;16.50;;;13.20;69.70;13.50;94436.00;;;;4932070;28;20666;-82
2022/03/31 03:28:48;;;;;;;20.13;14.77;;;13.20;69.70;13.50;94440.00;;;;4949313;28;20204;-82
2022/03/31 03:31:15;;;;;;;21.27;15.10;;;13.20;69.70;13.50;94438.00;;;;4952027;28;20228;-83
2022/03/31 03:33:43;;;;;;;22.43;15.50;;;13.20;69.70;13.50;94428.00;;;;4952184;28;20204;-81
2022/03/31 03:36:12;;;;;;;21.03;15.37;;;13.20;69.80;13.50;94435.00;;;;4951433;28;20197;-81
2022/03/31 03:38:39;;;;;;;20.90;14.87;;;13.20;70.40;13.40;94436.00;;;;4951502;28;20303;-81
2022/03/31 03:41:08;;;;;;;23.10;15.70;;;13.20;69.50;13.40;94427.00;;;;4951265;29;20212;-82
2022/03/31 03:43:35;;;;;;;22.20;15.87;;;13.20;69.50;13.40;94433.00;;;;4951697;28;20200;-81
2022/03/31 03:46:02;;;;;;;22.03;16.07;;;13.20;69.60;13.40;94436.00;;;;4951031;28;20211;-82
2022/03/31 03:48:29;;;;;;;21.07;15.97;;;13.20;69.70;13.40;94434.00;;;;4951779;28;20211;-82
2022/03/31 03:50:56;;;;;;;23.10;15.90;;;13.20;69.80;13.40;94429.00;;;;4951248;28;20589;-82
2022/03/31 03:53:23;;;;;;;20.27;15.17;;;13.20;69.60;13.40;94426.00;;;;4951300;28;20204;-82
2022/03/31 03:55:51;;;;;;;23.30;16.07;;;13.20;69.50;13.40;94434.00;;;;4950365;28;20569;-82
2022/03/31 03:58:19;;;;;;;21.43;15.03;;;13.10;69.60;13.40;94429.00;;;;4950982;28;20196;-82
2022/03/31 04:00:46;;;;;;;20.70;15.57;;;13.20;69.80;13.50;94439.00;;;;4955666;28;20257;-82
2022/03/31 04:03:13;;;;;;;22.53;15.93;;;13.20;69.80;13.50;94440.00;;;;4961021;28;20200;-82
2022/03/31 04:05:40;;;;;;;23.73;16.53;;;13.20;69.70;13.50;94441.00;;;;4950944;28;20200;-82
2022/03/31 04:08:08;;;;;;;24.07;16.17;;;13.20;69.60;13.40;94439.00;;;;4951183;28;20210;-81
2022/03/31 04:10:35;;;;;;;20.97;15.13;;;13.10;69.70;13.40;94428.00;;;;4951067;29;20240;-81
2022/03/31 04:13:02;;;;;;;19.83;15.03;;;13.10;69.70;13.40;94429.00;;;;4951096;29;20197;-82
2022/03/31 04:15:31;;;;;;;22.00;15.67;;;13.10;69.60;13.40;94418.00;;;;4950873;29;20208;-82
2022/03/31 04:17:59;;;;;;;20.80;15.80;;;13.10;69.60;13.40;94420.00;;;;4950652;28;20207;-82
2022/03/31 04:20:26;;;;;;;21.40;15.30;;;13.10;69.60;13.40;94415.00;;;;4950580;28;20752;-82
2022/03/31 04:22:53;;;;;;;22.07;16.47;;;13.10;69.70;13.40;94415.00;;;;4954072;28;20214;-83
2022/03/31 04:25:21;;;;;;;20.93;15.27;;;13.10;69.60;13.40;94412.00;;;;4952599;28;20206;-82
2022/03/31 04:27:48;;;;;;;20.00;14.60;;;13.10;69.60;13.40;94405.00;;;;4954127;29;20673;-83
2022/03/31 04:30:19;;;;;;;21.37;15.83;;;13.00;69.70;13.40;94406.00;;;;4954165;28;20238;-82
2022/03/31 04:32:48;;;;;;;22.50;15.37;;;13.10;69.70;13.40;94405.00;;;;4954692;28;20543;-81
2022/03/31 04:35:16;;;;;;;21.80;15.50;;;13.10;69.80;13.30;94402.00;;;;4954504;28;20211;-83
2022/03/31 04:37:43;;;;;;;21.00;15.33;;;13.00;69.60;13.30;94404.00;;;;4954570;28;20211;-83
2022/03/31 04:40:14;;;;;;;20.17;14.87;;;13.00;69.50;13.30;94415.00;;;;4954021;28;20251;-82
2022/03/31 04:42:41;;;;;;;22.67;16.37;;;13.00;69.60;13.30;94413.00;;;;4954194;28;20637;-82
2022/03/31 04:45:10;;;;;;;20.90;15.47;;;13.00;69.50;13.30;94412.00;;;;4954290;29;20207;-82
2022/03/31 04:47:37;;;;;;;21.70;15.23;;;13.00;69.50;13.20;94408.00;;;;4954385;28;20199;-83
2022/03/31 04:50:07;;;;;;;20.53;15.07;;;12.90;69.70;13.20;94403.00;;;;4954413;28;20200;-83
2022/03/31 04:52:35;;;;;;;22.57;16.43;;;12.90;70.00;13.20;94396.00;;;;4953758;29;20199;-82
2022/03/31 04:55:02;;;;;;;19.90;14.47;;;12.90;70.00;13.20;94396.00;;;;4953748;28;20211;-84
2022/03/31 04:57:29;;;;;;;19.87;14.03;;;12.90;70.30;13.20;94398.00;;;;4953850;29;20196;-83
2022/03/31 04:59:56;;;;;;;19.07;13.97;;;12.90;70.30;13.20;94398.00;;;;4954044;29;20238;-83
2022/03/31 05:02:23;;;;;;;19.77;14.70;;;12.90;70.90;13.20;94398.00;;;;4953822;29;20210;-82
2022/03/31 05:04:50;;;;;;;18.77;13.37;;;12.90;70.10;13.20;94407.00;;;;4954000;29;20204;-83
2022/03/31 05:07:19;;;;;;;20.97;13.37;;;12.90;70.10;13.20;94401.00;;;;4953980;28;20207;-84
2022/03/31 05:09:46;;;;;;;22.83;14.50;;;12.90;70.40;13.20;94393.00;;;;4953940;29;20243;-83
2022/03/31 05:12:13;;;;;;;20.93;14.87;;;12.80;70.90;13.20;94399.00;;;;4954045;29;20273;-83
2022/03/31 05:14:41;;;;;;;21.53;14.97;;;12.90;70.30;13.20;94399.00;;;;4953568;29;20680;-84
2022/03/31 05:17:08;;;;;;;22.50;14.57;;;12.90;70.40;13.20;94398.00;;;;4952898;28;20200;-83
2022/03/31 05:19:37;;;;;;;23.37;15.20;;;12.90;70.50;13.30;94398.00;;;;4953969;28;20224;-82
2022/03/31 05:22:05;;;;;;;19.67;13.93;;;12.90;70.50;13.30;94410.00;;;;4953308;28;20319;-82
2022/03/31 05:24:33;;;;;;;21.23;14.60;;;12.90;70.50;13.30;94416.00;;;;4948823;29;20212;-82
2022/03/31 05:27:01;;;;;;;21.47;14.10;;;12.90;70.50;13.30;94416.00;;;;4949619;29;20689;-83
2022/03/31 05:29:28;;;;;;;20.03;14.47;;;13.70;71.00;13.30;94413.00;;;;4953432;28;20211;-82
2022/03/31 05:31:55;;;;;;;22.23;15.40;;;12.90;70.50;13.30;94414.00;;;;4954066;28;20631;-82
2022/03/31 05:34:22;;;;;;;21.67;15.30;;;12.90;70.70;13.40;94417.00;;;;4954688;29;20196;-82
2022/03/31 05:36:49;;;;;;;23.30;15.10;;;12.90;70.70;13.40;94412.00;;;;4954619;29;20674;-82
2022/03/31 05:39:17;;;;;;;20.57;14.47;;;13.00;70.60;13.40;94418.00;;;;4953982;28;20207;-81
2022/03/31 05:41:45;;;;;;;20.93;14.60;;;13.00;70.70;13.50;94405.00;;;;4953839;28;20717;-82
2022/03/31 05:44:12;;;;;;;21.13;14.60;;;13.00;70.70;13.50;94404.00;;;;4953457;28;20212;-83
2022/03/31 05:46:39;;;;;;;19.97;14.23;;;13.00;70.50;13.50;94408.00;;;;4953584;28;20200;-82
2022/03/31 05:49:06;;;;;;;19.37;13.90;;;13.00;70.50;13.60;94406.00;;;;4954291;28;20196;-83
2022/03/31 05:51:33;;;;;;;18.90;13.83;;;13.80;70.90;13.60;94406.00;;;;4954194;29;20234;-82
2022/03/31 05:54:03;;;;;;;19.07;13.60;;;13.10;70.50;13.60;94399.00;;;;4955455;29;20208;-82
2022/03/31 05:56:30;;;;;;;19.33;14.70;;;13.00;70.30;13.60;94398.00;;;;4954444;28;20250;-81
2022/03/31 05:58:58;;;;;;;23.10;15.13;;;13.10;70.50;13.70;94398.00;;;;4953632;28;20657;-82
2022/03/31 06:01:25;;;;;;;20.13;14.07;;;13.10;70.50;13.70;94404.00;;;;4953565;28;20318;-82
2022/03/31 06:03:55;;;;;;;19.53;14.17;;;13.10;70.50;13.70;94403.00;;;;4954155;29;20200;-79
2022/03/31 06:06:22;;;;;;;20.17;14.17;;;13.20;70.40;13.70;94402.00;;;;4955626;28;20254;-82
2022/03/31 06:08:49;;;;;;;21.17;14.97;;;13.20;70.40;13.70;94406.00;;;;4957722;28;20287;-81
2022/03/31 06:11:16;;;;;;;22.87;15.63;;;13.20;70.30;13.70;94408.00;;;;4952861;28;20223;-83
2022/03/31 06:13:43;;;;;;;20.57;13.97;;;13.20;70.40;13.80;94410.00;;;;4953021;28;20204;-82
2022/03/31 06:16:13;;;;;;;22.30;15.77;;;13.30;70.20;13.80;94408.00;;;;4932802;29;20262;-82
2022/03/31 06:18:40;;;;;;;22.97;14.80;;;13.30;70.20;13.80;94404.00;;;;4944165;28;20200;-83
2022/03/31 06:21:07;;;;;;;22.40;15.70;;;13.30;70.10;13.80;94405.00;;;;4952494;29;20224;-80
2022/03/31 06:23:34;;;;;;;20.83;14.53;;;13.30;70.10;13.80;94403.00;;;;4972823;23;20234;-85
2022/03/31 06:26:02;;;;;;;22.50;14.37;;;13.30;70.10;13.80;94404.00;;;;4978860;28;20336;-87
2022/03/31 06:28:31;;;;;;;23.37;15.10;;;13.30;70.10;13.80;94399.00;;;;5008773;28;20277;-87
2022/03/31 06:30:58;;;;;;;20.40;14.73;;;13.30;70.20;13.80;94394.00;;;;4973746;28;20249;-85
2022/03/31 06:33:27;;;;;;;20.27;13.93;;;13.30;70.20;13.80;94401.00;;;;4971040;28;20286;-85
2022/03/31 06:35:54;;;;;;;19.87;13.43;;;13.30;70.20;13.90;94392.00;;;;4971821;28;20225;-86
2022/03/31 06:38:21;;;;;;;20.27;14.50;;;13.40;70.20;13.90;94402.00;;;;4962838;28;20272;-87
2022/03/31 06:43:30;;;;;;;19.23;14.53;;;13.70;70.20;13.90;94395.00;;;;4973649;28;20195;-86
2022/03/31 06:45:57;;;;;;;22.60;15.33;;;13.40;69.90;13.90;94400.00;;;;4969805;28;20718;-85
2022/03/31 06:48:26;;;;;;;20.07;14.00;;;13.40;69.90;13.90;94394.00;;;;4970559;28;20280;-85
2022/03/31 06:50:54;;;;;;;21.37;14.87;;;13.40;69.80;13.90;94402.00;;;;4971713;28;20203;-84
2022/03/31 06:53:21;;;;;;;20.70;14.70;;;13.40;69.70;13.90;94399.00;;;;4972031;28;20199;-86
2022/03/31 06:55:48;;;;;;;19.97;13.53;;;13.40;69.70;13.90;94398.00;;;;5006946;28;20652;-85
2022/03/31 06:58:16;;;;;;;22.27;14.90;;;13.40;69.70;13.90;94403.00;;;;4971908;28;20284;-85
2022/03/31 07:00:43;;;;;;;21.60;14.93;;;13.40;69.50;13.90;94399.00;;;;4971632;28;20222;-86
2022/03/31 07:03:10;;;;;;;20.87;13.83;;;13.50;69.70;13.90;94393.00;;;;4970653;28;20219;-85
2022/03/31 07:05:39;;;;;;;20.40;13.67;;;13.80;69.90;13.90;94400.00;;;;4970839;28;20820;-85
2022/03/31 07:08:07;;;;;;;21.90;13.93;;;13.50;69.90;14.00;94397.00;;;;4972706;28;20570;-85
2022/03/31 07:10:37;;;;;;;22.10;13.83;;;13.50;70.00;14.00;94401.00;;;;4972143;28;20533;-85
2022/03/31 07:13:04;;;;;;;19.87;13.57;;;13.50;70.10;14.10;94396.00;;;;5028815;28;20235;-85
2022/03/31 07:15:33;;;;;;;20.80;14.67;;;13.50;70.00;14.10;94394.00;;;;4960170;28;20251;-85
2022/03/31 07:18:03;;;;;;;19.93;13.97;;;13.60;70.00;14.20;94390.00;;;;4976613;28;20282;-85
2022/03/31 07:20:30;;;;;;;18.70;12.83;;;13.60;70.00;14.20;94392.00;;;;4972496;28;20522;-85
2022/03/31 07:22:59;;;;;;;21.07;13.83;;;13.60;69.80;14.20;94382.00;;;;4972754;28;20223;-84
2022/03/31 07:25:28;;;;;;;18.03;13.37;;;13.70;69.80;14.20;94383.00;;;;4971351;28;20319;-85
2022/03/31 07:27:56;;;;;;;18.30;12.80;;;13.70;69.70;14.30;94374.00;;;;4971546;28;20282;-86
2022/03/31 07:30:25;;;;;;;17.57;13.17;;;13.80;69.60;14.30;94378.00;;;;4973036;28;20575;-85
2022/03/31 07:32:54;;;;;;;18.57;12.80;;;13.80;69.50;14.40;94379.00;;;;4972796;28;20630;-84
2022/03/31 07:35:25;;;;;;;18.17;12.93;;;13.80;69.40;14.50;94379.00;;;;4970874;28;20294;-85
2022/03/31 07:37:54;;;;;;;18.00;13.10;;;13.90;69.40;14.50;94386.00;;;;4963966;28;20196;-84
2022/03/31 07:40:25;;;;;;;16.90;12.43;;;13.90;69.30;14.50;94374.00;;;;4972033;28;20317;-84
2022/03/31 07:42:53;;;;;;;15.83;11.73;;;13.90;69.10;14.50;94384.00;;;;4971438;28;20283;-84
2022/03/31 07:45:21;;;;;;;17.77;12.50;;;14.00;69.00;14.60;94377.00;;;;4971233;28;20258;-85
2022/03/31 07:47:49;;;;;;;17.40;12.33;;;14.00;68.90;14.60;94370.00;;;;4970621;28;20562;-84
2022/03/31 07:50:19;;;;;;;17.73;12.33;;;14.00;68.80;14.60;94384.00;;;;4971711;28;20203;-84
2022/03/31 07:52:46;;;;;;;16.30;11.60;;;14.10;68.70;14.60;94379.00;;;;4971153;28;20223;-85
2022/03/31 07:55:16;;;;;;;16.13;11.30;;;14.20;68.80;14.70;94380.00;;;;4969433;28;20769;-84
2022/03/31 07:57:47;;;;;;;16.07;11.90;;;14.10;68.70;14.70;94386.00;;;;4970744;28;20291;-85
2022/03/31 08:00:17;;;;;;;16.87;12.17;;;14.10;68.70;14.70;94378.00;;;;4987815;28;20230;-84
2022/03/31 08:02:48;;;;;;;17.17;11.63;;;14.10;68.70;14.80;94377.00;;;;4975477;28;20731;-83
2022/03/31 08:05:18;;;;;;;17.23;11.97;;;14.20;68.70;14.90;94376.00;;;;4971412;28;20273;-85
2022/03/31 08:07:46;;;;;;;15.70;11.97;;;14.20;68.70;15.00;94380.00;;;;4971157;28;20564;-84
2022/03/31 08:10:13;;;;;;;16.30;11.60;;;14.30;68.70;15.10;94375.00;;;;4971217;28;20244;-84
2022/03/31 08:12:41;;;;;;;15.87;11.17;;;14.30;69.50;15.20;94369.00;;;;4971198;28;20199;-85
2022/03/31 08:15:12;;;;;;;13.87;10.63;;;14.40;68.90;15.30;94373.00;;;;4970002;28;20225;-85
2022/03/31 08:17:39;;;;;;;14.43;10.90;;;14.50;68.90;15.40;94371.00;;;;4974473;28;20664;-84
2022/03/31 08:20:10;;;;;;;15.83;10.97;;;14.60;68.80;15.50;94365.00;;;;4953237;28;20618;-85
2022/03/31 08:22:39;;;;;;;12.77;11.03;;;15.10;69.00;15.60;94360.00;;;;4968392;28;20227;-84
2022/03/31 08:25:08;;;;;;;10.03;8.73;;;14.80;68.40;15.70;94355.00;;;;4977560;28;20231;-84
2022/03/31 08:27:36;;;;;;;12.90;10.47;;;14.80;68.10;15.80;94357.00;;;;4973845;28;20206;-84
2022/03/31 08:30:04;;;;;;;12.47;9.97;;;14.90;68.20;15.90;94355.00;;;;4970321;28;20686;-84
2022/03/31 08:32:35;;;;;;;14.17;10.30;;;15.00;67.70;16.00;94354.00;;;;4971173;28;20199;-84
2022/03/31 08:35:03;;;;;;;13.73;10.23;;;15.10;67.40;16.10;94356.00;;;;4970310;28;20617;-83
2022/03/31 08:37:31;;;;;;;13.33;9.47;;;15.20;67.40;16.20;94353.00;;;;4983680;28;20228;-84
2022/03/31 08:39:58;;;;;;;13.27;9.23;;;15.30;67.10;16.20;94363.00;;;;4969978;28;20319;-84
2022/03/31 08:42:25;;;;;;;11.30;8.77;;;15.30;66.70;16.30;94356.00;;;;4970745;28;20219;-84
2022/03/31 08:44:57;;;;;;;11.37;9.27;;;15.40;66.70;16.40;94355.00;;;;4985471;28;20306;-84
2022/03/31 08:47:26;;;;;;;9.73;8.17;;;15.50;66.50;16.50;94359.00;;;;4954912;28;20291;-84
2022/03/31 08:49:55;;;;;;;9.60;8.47;;;15.60;66.20;16.60;94364.00;;;;4951140;28;20664;-84
2022/03/31 08:52:23;;;;;;;11.57;8.93;;;15.70;66.00;16.70;94371.00;;;;5020496;28;20204;-84
2022/03/31 08:54:50;;;;;;;12.00;9.50;;;15.80;65.90;16.70;94370.00;;;;4969489;28;20749;-84
2022/03/31 08:57:18;;;;;;;10.57;8.53;;;15.80;66.00;16.80;94366.00;;;;4970314;28;20207;-84
2022/03/31 08:59:45;;;;;;;12.70;9.43;;;15.90;64.60;16.80;94368.00;;;;4971222;28;20618;-84
2022/03/31 09:02:26;;;;;;;10.23;8.80;;;15.90;64.50;16.80;94362.00;;;;4969530;28;20247;-84
2022/03/31 09:05:06;;;;;;;11.37;8.37;;;16.00;63.60;16.80;94361.00;;;;4968112;28;20231;-84
2022/03/31 09:07:33;;;;;;;10.10;8.30;;;16.10;63.50;16.90;94363.00;;;;4966185;28;20269;-84
2022/03/31 09:10:00;;;;;;;10.90;8.27;;;16.00;63.10;16.80;94358.00;;;;4973240;28;20234;-84
2022/03/31 09:12:39;;;;;;;10.70;8.70;;;16.10;62.70;16.70;94353.00;;;;4973245;28;20231;-84
2022/03/31 09:15:11;;;;;;;11.10;8.93;;;16.10;62.30;16.70;94355.00;;;;4973049;28;20271;-84
2022/03/31 09:17:38;;;;;;;10.63;8.60;;;16.10;62.60;16.70;94355.00;;;;4955728;28;20224;-84
2022/03/31 09:20:08;;;;;;;8.67;7.77;;;16.10;62.70;16.70;94357.00;;;;4973238;28;20750;-84
2022/03/31 09:22:46;;;;;;;10.00;8.40;;;16.10;62.70;16.70;94355.00;;;;4959671;28;20311;-84
2022/03/31 09:25:22;;;;;;;9.60;8.50;;;16.10;62.90;16.80;94349.00;;;;5005237;28;20697;-86
2022/03/31 09:27:49;;;;;;;9.90;8.30;;;16.10;62.80;16.80;94350.00;;;;5022879;28;20664;-85
2022/03/31 09:30:17;;;;;;;9.47;8.37;;;16.20;62.90;16.80;94354.00;;;;4972213;28;20200;-84
2022/03/31 09:32:48;;;;;;;10.07;8.30;;;16.20;62.80;16.90;94355.00;;;;4978135;28;20707;-85
2022/03/31 09:35:21;;;;;;;10.37;8.03;;;16.20;62.70;16.90;94354.00;;;;4971711;28;20215;-85
2022/03/31 09:37:49;;;;;;;9.13;7.60;;;16.20;62.20;16.90;94353.00;;;;4973572;28;20282;-85
2022/03/31 09:40:19;;;;;;;11.20;8.20;;;16.20;62.30;16.90;94349.00;;;;4971960;28;20202;-85
2022/03/31 09:43:00;;;;;;;9.87;8.60;;;16.20;62.30;17.00;94353.00;;;;4972079;28;20253;-85
2022/03/31 09:45:38;;;;;;;9.57;8.30;;;16.20;61.90;17.00;94353.00;;;;4971198;28;20215;-85
2022/03/31 09:48:17;;;;;;;9.40;7.97;;;16.20;61.70;17.00;94349.00;;;;4972276;28;20574;-86
2022/03/31 09:50:46;;;;;;;9.97;7.87;;;16.20;62.00;17.10;94349.00;;;;4971842;28;20219;-85
2022/03/31 09:53:14;;;;;;;10.77;8.70;;;16.30;62.30;17.10;94345.00;;;;4969865;28;20219;-85
2022/03/31 09:55:43;;;;;;;9.00;7.97;;;16.30;62.40;17.10;94340.00;;;;4970963;28;20223;-84
2022/03/31 09:58:18;;;;;;;10.27;9.17;;;16.30;62.30;17.10;94358.00;;;;4970494;28;20235;-85
2022/03/31 10:00:46;;;;;;;11.53;8.63;;;16.30;61.90;17.10;94356.00;;;;4972102;28;20269;-85
2022/03/31 10:03:15;;;;;;;12.03;8.70;;;16.30;61.80;17.00;94351.00;;;;4971013;28;20708;-85
2022/03/31 10:05:45;;;;;;;9.70;8.20;;;16.30;61.90;17.00;94354.00;;;;4970937;28;20226;-84
2022/03/31 10:08:13;;;;;;;10.00;8.73;;;16.30;61.80;17.00;94351.00;;;;4973966;28;20237;-84
2022/03/31 10:10:43;;;;;;;11.73;9.00;;;16.20;61.90;17.00;94354.00;;;;4971544;28;20290;-84
2022/03/31 10:13:18;;;;;;;9.63;8.43;;;16.20;61.80;17.00;94340.00;;;;4971662;28;20685;-84
2022/03/31 10:15:47;;;;;;;11.10;9.30;;;16.30;62.10;17.00;94345.00;;;;4970698;28;20222;-84
2022/03/31 10:18:16;;;;;;;11.37;8.97;;;16.30;62.70;17.00;94344.00;;;;4971079;28;20203;-84
2022/03/31 10:20:57;;;;;;;12.13;8.97;;;16.30;61.80;17.10;94336.00;;;;4971611;28;20229;-84
2022/03/31 10:26:09;;;;;;;11.10;8.40;;;16.40;62.10;17.30;94336.00;;;;4990019;28;20579;-84
2022/03/31 10:28:36;;;;;;;10.97;8.43;;;16.50;62.10;17.30;94336.00;;;;5017728;28;20633;-84
2022/03/31 10:31:06;;;;;;;9.67;8.67;;;16.50;62.90;17.40;94328.00;;;;4971413;28;20202;-84
2022/03/31 10:33:38;;;;;;;10.40;8.93;;;16.60;62.00;17.50;94329.00;;;;4971596;28;20702;-84
2022/03/31 10:36:12;;;;;;;10.17;8.80;;;16.50;61.80;17.60;94332.00;;;;4971628;28;20226;-85
2022/03/31 10:38:51;;;;;;;10.37;8.83;;;16.70;61.60;17.60;94336.00;;;;5007954;28;20200;-85
2022/03/31 10:41:19;;;;;;;8.93;7.80;;;16.70;61.10;17.60;94332.00;;;;5016254;28;20326;-85
2022/03/31 10:43:48;;;;;;;8.60;7.70;;;16.80;60.80;17.60;94332.00;;;;4971898;28;20274;-85
2022/03/31 10:46:17;;;;;;;9.87;8.10;;;16.80;60.70;17.60;94327.00;;;;4971194;28;20226;-85
2022/03/31 10:48:54;;;;;;;10.67;8.53;;;16.80;60.60;17.50;94333.00;;;;4991321;28;20232;-84
2022/03/31 10:51:32;;;;;;;8.63;7.73;;;16.80;59.80;17.40;94324.00;;;;5052962;28;20287;-85
2022/03/31 10:54:00;;;;;;;8.83;7.53;;;16.80;59.70;17.30;94313.00;;;;4994271;28;20195;-84
2022/03/31 10:56:29;;;;;;;11.30;8.57;;;16.80;59.90;17.30;94327.00;;;;4970594;28;20207;-83